sensor_id;sensor_type;location;lat;lon;timestamp;P1;durP1;ratioP1;P2;durP2;ratioP2
10418;SDS011;5256;48.728;9.140;2022-10-17T00:00:40;0.30;;;0.30;;
10418;SDS011;5256;48.728;9.140;2022-10-17T00:03:06;0.20;;;0.20;;
10418;SDS011;5256;48.728;9.140;2022-10-17T00:05:33;0.30;;;0.30;;
10418;SDS011;5256;48.728;9.140;2022-10-17T00:07:58;0.30;;;0.30;;
10418;SDS011;5256;48.728;9.140;2022-10-17T00:10:24;0.23;;;0.23;;
10418;SDS011;5256;48.728;9.140;2022-10-17T00:12:50;0.30;;;0.30;;
10418;SDS011;5256;48.728;9.140;2022-10-17T00:15:16;0.30;;;0.30;;
10418;SDS011;5256;48.728;9.140;2022-10-17T00:17:44;0.40;;;0.40;;
10418;SDS011;5256;48.728;9.140;2022-10-17T00:20:10;0.20;;;0.20;;
10418;SDS011;5256;48.728;9.140;2022-10-17T00:22:35;0.30;;;0.30;;
10418;SDS011;5256;48.728;9.140;2022-10-17T00:25:01;0.30;;;0.30;;
10418;SDS011;5256;48.728;9.140;2022-10-17T00:27:27;0.20;;;0.20;;
10418;SDS011;5256;48.728;9.140;2022-10-17T00:29:52;0.30;;;0.30;;
10418;SDS011;5256;48.728;9.140;2022-10-17T00:32:18;0.30;;;0.30;;
10418;SDS011;5256;48.728;9.140;2022-10-17T00:34:44;0.30;;;0.30;;
10418;SDS011;5256;48.728;9.140;2022-10-17T00:37:10;0.30;;;0.30;;
10418;SDS011;5256;48.728;9.140;2022-10-17T00:39:35;0.30;;;0.30;;
10418;SDS011;5256;48.728;9.140;2022-10-17T00:42:01;0.40;;;0.40;;
10418;SDS011;5256;48.728;9.140;2022-10-17T00:46:56;0.30;;;0.30;;
10418;SDS011;5256;48.728;9.140;2022-10-17T00:49:27;0.30;;;0.30;;
10418;SDS011;5256;48.728;9.140;2022-10-17T00:51:57;0.30;;;0.30;;
10418;SDS011;5256;48.728;9.140;2022-10-17T00:54:28;0.30;;;0.30;;
10418;SDS011;5256;48.728;9.140;2022-10-17T00:56:57;0.40;;;0.40;;
10418;SDS011;5256;48.728;9.140;2022-10-17T00:59:24;0.30;;;0.30;;
10418;SDS011;5256;48.728;9.140;2022-10-17T01:01:52;0.33;;;0.33;;
10418;SDS011;5256;48.728;9.140;2022-10-17T01:04:27;0.20;;;0.20;;
10418;SDS011;5256;48.728;9.140;2022-10-17T01:06:53;0.30;;;0.30;;
10418;SDS011;5256;48.728;9.140;2022-10-17T01:09:18;0.40;;;0.40;;
10418;SDS011;5256;48.728;9.140;2022-10-17T01:23:23;0.30;;;0.30;;
10418;SDS011;5256;48.728;9.140;2022-10-17T01:25:56;0.30;;;0.30;;
10418;SDS011;5256;48.728;9.140;2022-10-17T01:31:46;0.30;;;0.30;;
10418;SDS011;5256;48.728;9.140;2022-10-17T01:34:32;0.30;;;0.30;;
10418;SDS011;5256;48.728;9.140;2022-10-17T01:43:17;0.27;;;0.27;;
10418;SDS011;5256;48.728;9.140;2022-10-17T01:45:51;0.40;;;0.40;;
10418;SDS011;5256;48.728;9.140;2022-10-17T01:48:28;0.30;;;0.30;;
10418;SDS011;5256;48.728;9.140;2022-10-17T01:51:04;0.30;;;0.30;;
10418;SDS011;5256;48.728;9.140;2022-10-17T01:53:48;0.30;;;0.30;;
10418;SDS011;5256;48.728;9.140;2022-10-17T01:56:18;0.40;;;0.40;;
10418;SDS011;5256;48.728;9.140;2022-10-17T01:58:48;0.30;;;0.30;;
10418;SDS011;5256;48.728;9.140;2022-10-17T02:01:17;0.30;;;0.30;;
10418;SDS011;5256;48.728;9.140;2022-10-17T02:03:44;0.30;;;0.30;;
10418;SDS011;5256;48.728;9.140;2022-10-17T02:06:12;0.30;;;0.30;;
10418;SDS011;5256;48.728;9.140;2022-10-17T02:08:44;0.40;;;0.40;;
10418;SDS011;5256;48.728;9.140;2022-10-17T02:11:24;0.30;;;0.30;;
10418;SDS011;5256;48.728;9.140;2022-10-17T02:16:58;0.30;;;0.30;;
10418;SDS011;5256;48.728;9.140;2022-10-17T02:22:34;0.30;;;0.30;;
10418;SDS011;5256;48.728;9.140;2022-10-17T02:25:26;0.30;;;0.30;;
10418;SDS011;5256;48.728;9.140;2022-10-17T02:28:01;0.30;;;0.30;;
10418;SDS011;5256;48.728;9.140;2022-10-17T02:30:36;0.33;;;0.33;;
10418;SDS011;5256;48.728;9.140;2022-10-17T02:33:41;0.30;;;0.30;;
10418;SDS011;5256;48.728;9.140;2022-10-17T02:36:07;0.40;;;0.40;;
10418;SDS011;5256;48.728;9.140;2022-10-17T02:38:45;0.40;;;0.40;;
10418;SDS011;5256;48.728;9.140;2022-10-17T02:41:14;0.30;;;0.30;;
10418;SDS011;5256;48.728;9.140;2022-10-17T02:43:41;0.30;;;0.30;;
10418;SDS011;5256;48.728;9.140;2022-10-17T02:46:10;0.30;;;0.30;;
10418;SDS011;5256;48.728;9.140;2022-10-17T02:48:46;0.30;;;0.30;;
10418;SDS011;5256;48.728;9.140;2022-10-17T02:54:22;0.30;;;0.30;;
10418;SDS011;5256;48.728;9.140;2022-10-17T02:57:15;0.30;;;0.30;;
10418;SDS011;5256;48.728;9.140;2022-10-17T02:59:47;0.30;;;0.30;;
10418;SDS011;5256;48.728;9.140;2022-10-17T03:02:15;0.30;;;0.30;;
10418;SDS011;5256;48.728;9.140;2022-10-17T03:04:41;0.20;;;0.20;;
10418;SDS011;5256;48.728;9.140;2022-10-17T03:07:10;0.30;;;0.30;;
10418;SDS011;5256;48.728;9.140;2022-10-17T03:09:36;0.30;;;0.30;;
10418;SDS011;5256;48.728;9.140;2022-10-17T03:12:02;0.30;;;0.30;;
10418;SDS011;5256;48.728;9.140;2022-10-17T03:14:28;0.30;;;0.30;;
10418;SDS011;5256;48.728;9.140;2022-10-17T03:16:53;0.30;;;0.30;;
10418;SDS011;5256;48.728;9.140;2022-10-17T03:19:19;0.40;;;0.40;;
10418;SDS011;5256;48.728;9.140;2022-10-17T03:21:44;0.30;;;0.30;;
10418;SDS011;5256;48.728;9.140;2022-10-17T03:24:10;0.30;;;0.30;;
10418;SDS011;5256;48.728;9.140;2022-10-17T03:26:35;0.40;;;0.40;;
10418;SDS011;5256;48.728;9.140;2022-10-17T03:29:01;0.30;;;0.30;;
10418;SDS011;5256;48.728;9.140;2022-10-17T03:31:27;0.30;;;0.30;;
10418;SDS011;5256;48.728;9.140;2022-10-17T03:33:53;0.40;;;0.40;;
10418;SDS011;5256;48.728;9.140;2022-10-17T03:36:18;0.30;;;0.30;;
10418;SDS011;5256;48.728;9.140;2022-10-17T03:38:44;0.40;;;0.40;;
10418;SDS011;5256;48.728;9.140;2022-10-17T03:41:10;0.40;;;0.40;;
10418;SDS011;5256;48.728;9.140;2022-10-17T03:43:36;0.40;;;0.40;;
10418;SDS011;5256;48.728;9.140;2022-10-17T03:46:03;0.40;;;0.40;;
10418;SDS011;5256;48.728;9.140;2022-10-17T03:48:30;0.30;;;0.30;;
10418;SDS011;5256;48.728;9.140;2022-10-17T03:50:59;0.40;;;0.40;;
10418;SDS011;5256;48.728;9.140;2022-10-17T03:53:26;0.40;;;0.40;;
10418;SDS011;5256;48.728;9.140;2022-10-17T03:55:53;0.37;;;0.37;;
10418;SDS011;5256;48.728;9.140;2022-10-17T03:58:18;0.30;;;0.30;;
10418;SDS011;5256;48.728;9.140;2022-10-17T04:00:44;0.30;;;0.30;;
10418;SDS011;5256;48.728;9.140;2022-10-17T04:03:09;0.30;;;0.30;;
10418;SDS011;5256;48.728;9.140;2022-10-17T04:05:35;0.40;;;0.40;;
10418;SDS011;5256;48.728;9.140;2022-10-17T04:08:01;0.30;;;0.30;;
10418;SDS011;5256;48.728;9.140;2022-10-17T04:10:26;0.30;;;0.30;;
10418;SDS011;5256;48.728;9.140;2022-10-17T04:12:52;0.40;;;0.40;;
10418;SDS011;5256;48.728;9.140;2022-10-17T04:15:17;0.30;;;0.30;;
10418;SDS011;5256;48.728;9.140;2022-10-17T04:17:43;0.40;;;0.40;;
10418;SDS011;5256;48.728;9.140;2022-10-17T04:20:08;0.30;;;0.30;;
10418;SDS011;5256;48.728;9.140;2022-10-17T04:22:34;0.30;;;0.30;;
10418;SDS011;5256;48.728;9.140;2022-10-17T04:25:00;0.30;;;0.30;;
10418;SDS011;5256;48.728;9.140;2022-10-17T04:27:25;0.30;;;0.30;;
10418;SDS011;5256;48.728;9.140;2022-10-17T04:29:51;0.30;;;0.30;;
10418;SDS011;5256;48.728;9.140;2022-10-17T04:32:16;0.30;;;0.30;;
10418;SDS011;5256;48.728;9.140;2022-10-17T04:34:42;0.30;;;0.30;;
10418;SDS011;5256;48.728;9.140;2022-10-17T04:37:08;0.40;;;0.40;;
10418;SDS011;5256;48.728;9.140;2022-10-17T04:39:33;0.30;;;0.30;;
10418;SDS011;5256;48.728;9.140;2022-10-17T04:41:59;0.30;;;0.30;;
10418;SDS011;5256;48.728;9.140;2022-10-17T04:44:24;0.40;;;0.40;;
10418;SDS011;5256;48.728;9.140;2022-10-17T04:46:50;0.30;;;0.30;;
10418;SDS011;5256;48.728;9.140;2022-10-17T04:49:15;0.30;;;0.30;;
10418;SDS011;5256;48.728;9.140;2022-10-17T04:51:41;0.30;;;0.30;;
10418;SDS011;5256;48.728;9.140;2022-10-17T04:54:06;0.33;;;0.33;;
10418;SDS011;5256;48.728;9.140;2022-10-17T04:56:32;0.53;;;0.53;;
10418;SDS011;5256;48.728;9.140;2022-10-17T04:58:57;0.30;;;0.30;;
10418;SDS011;5256;48.728;9.140;2022-10-17T05:01:23;0.30;;;0.30;;
10418;SDS011;5256;48.728;9.140;2022-10-17T05:03:50;0.30;;;0.30;;
10418;SDS011;5256;48.728;9.140;2022-10-17T05:06:17;0.40;;;0.40;;
10418;SDS011;5256;48.728;9.140;2022-10-17T05:08:44;0.30;;;0.30;;
10418;SDS011;5256;48.728;9.140;2022-10-17T05:11:14;0.40;;;0.40;;
10418;SDS011;5256;48.728;9.140;2022-10-17T05:13:58;0.33;;;0.33;;
10418;SDS011;5256;48.728;9.140;2022-10-17T05:16:25;0.40;;;0.40;;
10418;SDS011;5256;48.728;9.140;2022-10-17T05:18:52;0.30;;;0.30;;
10418;SDS011;5256;48.728;9.140;2022-10-17T05:21:19;0.30;;;0.30;;
10418;SDS011;5256;48.728;9.140;2022-10-17T05:23:46;0.30;;;0.30;;
10418;SDS011;5256;48.728;9.140;2022-10-17T05:26:12;0.30;;;0.30;;
10418;SDS011;5256;48.728;9.140;2022-10-17T05:28:38;0.30;;;0.30;;
10418;SDS011;5256;48.728;9.140;2022-10-17T05:31:04;0.30;;;0.30;;
10418;SDS011;5256;48.728;9.140;2022-10-17T05:33:31;0.33;;;0.33;;
10418;SDS011;5256;48.728;9.140;2022-10-17T05:35:57;0.30;;;0.30;;
10418;SDS011;5256;48.728;9.140;2022-10-17T05:38:23;0.30;;;0.30;;
10418;SDS011;5256;48.728;9.140;2022-10-17T05:40:49;0.30;;;0.30;;
10418;SDS011;5256;48.728;9.140;2022-10-17T05:43:15;0.37;;;0.37;;
10418;SDS011;5256;48.728;9.140;2022-10-17T05:45:40;0.30;;;0.30;;
10418;SDS011;5256;48.728;9.140;2022-10-17T05:48:06;0.17;;;0.17;;
10418;SDS011;5256;48.728;9.140;2022-10-17T05:50:33;0.30;;;0.30;;
10418;SDS011;5256;48.728;9.140;2022-10-17T05:52:59;0.40;;;0.40;;
10418;SDS011;5256;48.728;9.140;2022-10-17T05:55:25;0.30;;;0.30;;
10418;SDS011;5256;48.728;9.140;2022-10-17T05:57:50;0.30;;;0.30;;
10418;SDS011;5256;48.728;9.140;2022-10-17T06:00:17;0.30;;;0.30;;
10418;SDS011;5256;48.728;9.140;2022-10-17T06:02:44;0.30;;;0.30;;
10418;SDS011;5256;48.728;9.140;2022-10-17T06:05:10;0.30;;;0.30;;
10418;SDS011;5256;48.728;9.140;2022-10-17T06:07:36;0.30;;;0.30;;
10418;SDS011;5256;48.728;9.140;2022-10-17T06:10:02;0.30;;;0.30;;
10418;SDS011;5256;48.728;9.140;2022-10-17T06:12:28;0.30;;;0.30;;
10418;SDS011;5256;48.728;9.140;2022-10-17T06:14:53;0.40;;;0.40;;
10418;SDS011;5256;48.728;9.140;2022-10-17T06:17:19;0.40;;;0.40;;
10418;SDS011;5256;48.728;9.140;2022-10-17T06:19:45;0.30;;;0.30;;
10418;SDS011;5256;48.728;9.140;2022-10-17T06:22:10;0.30;;;0.30;;
10418;SDS011;5256;48.728;9.140;2022-10-17T06:24:36;0.40;;;0.40;;
10418;SDS011;5256;48.728;9.140;2022-10-17T06:27:01;0.20;;;0.20;;
10418;SDS011;5256;48.728;9.140;2022-10-17T06:29:27;0.20;;;0.20;;
10418;SDS011;5256;48.728;9.140;2022-10-17T06:31:52;0.30;;;0.30;;
10418;SDS011;5256;48.728;9.140;2022-10-17T06:34:18;0.30;;;0.30;;
10418;SDS011;5256;48.728;9.140;2022-10-17T06:36:44;0.40;;;0.40;;
10418;SDS011;5256;48.728;9.140;2022-10-17T06:39:09;0.30;;;0.30;;
10418;SDS011;5256;48.728;9.140;2022-10-17T06:41:35;0.30;;;0.30;;
10418;SDS011;5256;48.728;9.140;2022-10-17T06:44:01;0.40;;;0.40;;
10418;SDS011;5256;48.728;9.140;2022-10-17T06:46:32;0.40;;;0.40;;
10418;SDS011;5256;48.728;9.140;2022-10-17T06:48:57;0.30;;;0.30;;
10418;SDS011;5256;48.728;9.140;2022-10-17T06:51:23;0.37;;;0.37;;
10418;SDS011;5256;48.728;9.140;2022-10-17T06:53:48;0.40;;;0.40;;
10418;SDS011;5256;48.728;9.140;2022-10-17T06:56:14;0.50;;;0.50;;
10418;SDS011;5256;48.728;9.140;2022-10-17T06:58:39;0.40;;;0.40;;
10418;SDS011;5256;48.728;9.140;2022-10-17T07:01:07;0.50;;;0.50;;
10418;SDS011;5256;48.728;9.140;2022-10-17T07:03:35;0.30;;;0.30;;
10418;SDS011;5256;48.728;9.140;2022-10-17T07:06:01;0.40;;;0.40;;
10418;SDS011;5256;48.728;9.140;2022-10-17T07:08:28;0.30;;;0.30;;
10418;SDS011;5256;48.728;9.140;2022-10-17T07:10:53;0.30;;;0.30;;
10418;SDS011;5256;48.728;9.140;2022-10-17T07:13:19;0.20;;;0.20;;
10418;SDS011;5256;48.728;9.140;2022-10-17T07:15:45;0.27;;;0.27;;
10418;SDS011;5256;48.728;9.140;2022-10-17T07:18:11;0.20;;;0.20;;
10418;SDS011;5256;48.728;9.140;2022-10-17T07:20:36;0.40;;;0.40;;
10418;SDS011;5256;48.728;9.140;2022-10-17T07:23:02;0.30;;;0.30;;
10418;SDS011;5256;48.728;9.140;2022-10-17T07:25:28;0.30;;;0.30;;
10418;SDS011;5256;48.728;9.140;2022-10-17T07:27:54;0.30;;;0.30;;
10418;SDS011;5256;48.728;9.140;2022-10-17T07:30:20;0.30;;;0.30;;
10418;SDS011;5256;48.728;9.140;2022-10-17T07:32:46;0.27;;;0.27;;
10418;SDS011;5256;48.728;9.140;2022-10-17T07:35:11;0.30;;;0.30;;
10418;SDS011;5256;48.728;9.140;2022-10-17T07:37:37;0.30;;;0.30;;
10418;SDS011;5256;48.728;9.140;2022-10-17T07:40:03;0.20;;;0.20;;
10418;SDS011;5256;48.728;9.140;2022-10-17T07:42:31;0.30;;;0.30;;
10418;SDS011;5256;48.728;9.140;2022-10-17T07:44:57;0.20;;;0.20;;
10418;SDS011;5256;48.728;9.140;2022-10-17T07:47:23;0.20;;;0.20;;
10418;SDS011;5256;48.728;9.140;2022-10-17T07:49:49;0.20;;;0.20;;
10418;SDS011;5256;48.728;9.140;2022-10-17T07:52:15;0.20;;;0.20;;
10418;SDS011;5256;48.728;9.140;2022-10-17T07:54:41;0.10;;;0.10;;
10418;SDS011;5256;48.728;9.140;2022-10-17T07:57:07;0.20;;;0.20;;
10418;SDS011;5256;48.728;9.140;2022-10-17T07:59:33;0.20;;;0.20;;
10418;SDS011;5256;48.728;9.140;2022-10-17T08:01:59;0.17;;;0.17;;
10418;SDS011;5256;48.728;9.140;2022-10-17T08:04:25;0.20;;;0.20;;
10418;SDS011;5256;48.728;9.140;2022-10-17T08:06:51;0.20;;;0.20;;
10418;SDS011;5256;48.728;9.140;2022-10-17T08:09:17;0.20;;;0.20;;
10418;SDS011;5256;48.728;9.140;2022-10-17T08:11:43;0.20;;;0.20;;
10418;SDS011;5256;48.728;9.140;2022-10-17T08:14:09;0.20;;;0.20;;
10418;SDS011;5256;48.728;9.140;2022-10-17T08:16:35;0.27;;;0.27;;
10418;SDS011;5256;48.728;9.140;2022-10-17T08:19:01;0.20;;;0.20;;
10418;SDS011;5256;48.728;9.140;2022-10-17T08:21:27;0.20;;;0.20;;
10418;SDS011;5256;48.728;9.140;2022-10-17T08:23:53;0.27;;;0.27;;
10418;SDS011;5256;48.728;9.140;2022-10-17T08:26:18;0.20;;;0.20;;
10418;SDS011;5256;48.728;9.140;2022-10-17T08:28:44;0.10;;;0.10;;
10418;SDS011;5256;48.728;9.140;2022-10-17T08:31:12;0.20;;;0.20;;
10418;SDS011;5256;48.728;9.140;2022-10-17T08:33:40;0.20;;;0.20;;
10418;SDS011;5256;48.728;9.140;2022-10-17T08:36:06;0.20;;;0.20;;
10418;SDS011;5256;48.728;9.140;2022-10-17T08:38:32;0.20;;;0.20;;
10418;SDS011;5256;48.728;9.140;2022-10-17T08:41:00;0.13;;;0.13;;
10418;SDS011;5256;48.728;9.140;2022-10-17T08:44:00;0.20;;;0.20;;
10418;SDS011;5256;48.728;9.140;2022-10-17T08:46:36;0.17;;;0.17;;
10418;SDS011;5256;48.728;9.140;2022-10-17T08:49:10;0.20;;;0.20;;
10418;SDS011;5256;48.728;9.140;2022-10-17T08:51:46;0.20;;;0.20;;
10418;SDS011;5256;48.728;9.140;2022-10-17T08:54:22;0.17;;;0.17;;
10418;SDS011;5256;48.728;9.140;2022-10-17T08:56:53;0.20;;;0.20;;
10418;SDS011;5256;48.728;9.140;2022-10-17T08:59:24;0.10;;;0.10;;
10418;SDS011;5256;48.728;9.140;2022-10-17T09:10:41;0.20;;;0.20;;
10418;SDS011;5256;48.728;9.140;2022-10-17T09:15:56;0.20;;;0.20;;
10418;SDS011;5256;48.728;9.140;2022-10-17T09:18:30;0.20;;;0.20;;
10418;SDS011;5256;48.728;9.140;2022-10-17T09:23:44;0.30;;;0.30;;
10418;SDS011;5256;48.728;9.140;2022-10-17T09:26:20;0.20;;;0.20;;
10418;SDS011;5256;48.728;9.140;2022-10-17T09:28:50;0.20;;;0.20;;
10418;SDS011;5256;48.728;9.140;2022-10-17T09:31:25;0.20;;;0.20;;
10418;SDS011;5256;48.728;9.140;2022-10-17T09:33:54;0.20;;;0.20;;
10418;SDS011;5256;48.728;9.140;2022-10-17T09:36:23;0.20;;;0.20;;
10418;SDS011;5256;48.728;9.140;2022-10-17T09:38:58;0.30;;;0.30;;
10418;SDS011;5256;48.728;9.140;2022-10-17T09:41:35;0.20;;;0.20;;
10418;SDS011;5256;48.728;9.140;2022-10-17T09:44:23;0.20;;;0.20;;
10418;SDS011;5256;48.728;9.140;2022-10-17T09:49:34;0.20;;;0.20;;
10418;SDS011;5256;48.728;9.140;2022-10-17T09:52:02;0.10;;;0.10;;
10418;SDS011;5256;48.728;9.140;2022-10-17T09:54:35;0.30;;;0.30;;
10418;SDS011;5256;48.728;9.140;2022-10-17T09:57:07;0.30;;;0.30;;
10418;SDS011;5256;48.728;9.140;2022-10-17T09:59:35;0.10;;;0.10;;
10418;SDS011;5256;48.728;9.140;2022-10-17T10:07:21;0.10;;;0.10;;
10418;SDS011;5256;48.728;9.140;2022-10-17T10:09:47;0.27;;;0.27;;
10418;SDS011;5256;48.728;9.140;2022-10-17T10:12:36;0.17;;;0.17;;
10418;SDS011;5256;48.728;9.140;2022-10-17T10:15:26;0.10;;;0.10;;
10418;SDS011;5256;48.728;9.140;2022-10-17T10:17:58;0.20;;;0.20;;
10418;SDS011;5256;48.728;9.140;2022-10-17T10:20:26;0.20;;;0.20;;
10418;SDS011;5256;48.728;9.140;2022-10-17T10:23:09;0.20;;;0.20;;
10418;SDS011;5256;48.728;9.140;2022-10-17T10:28:27;0.20;;;0.20;;
10418;SDS011;5256;48.728;9.140;2022-10-17T10:31:05;0.10;;;0.10;;
10418;SDS011;5256;48.728;9.140;2022-10-17T10:33:33;0.10;;;0.10;;
10418;SDS011;5256;48.728;9.140;2022-10-17T10:36:01;0.20;;;0.20;;
10418;SDS011;5256;48.728;9.140;2022-10-17T10:38:31;0.20;;;0.20;;
10418;SDS011;5256;48.728;9.140;2022-10-17T10:41:05;0.20;;;0.20;;
10418;SDS011;5256;48.728;9.140;2022-10-17T10:46:05;0.17;;;0.17;;
10418;SDS011;5256;48.728;9.140;2022-10-17T10:48:52;0.23;;;0.23;;
10418;SDS011;5256;48.728;9.140;2022-10-17T10:51:22;0.10;;;0.10;;
10418;SDS011;5256;48.728;9.140;2022-10-17T10:54:10;0.20;;;0.20;;
10418;SDS011;5256;48.728;9.140;2022-10-17T10:56:41;0.20;;;0.20;;
10418;SDS011;5256;48.728;9.140;2022-10-17T10:59:19;0.20;;;0.20;;
10418;SDS011;5256;48.728;9.140;2022-10-17T11:04:43;0.20;;;0.20;;
10418;SDS011;5256;48.728;9.140;2022-10-17T11:07:18;0.20;;;0.20;;
10418;SDS011;5256;48.728;9.140;2022-10-17T11:12:24;0.20;;;0.20;;
10418;SDS011;5256;48.728;9.140;2022-10-17T11:20:18;0.20;;;0.20;;
10418;SDS011;5256;48.728;9.140;2022-10-17T11:23:16;0.10;;;0.10;;
10418;SDS011;5256;48.728;9.140;2022-10-17T11:25:49;0.30;;;0.30;;
10418;SDS011;5256;48.728;9.140;2022-10-17T11:28:17;0.10;;;0.10;;
10418;SDS011;5256;48.728;9.140;2022-10-17T11:30:55;0.10;;;0.10;;
10418;SDS011;5256;48.728;9.140;2022-10-17T11:33:41;0.10;;;0.10;;
10418;SDS011;5256;48.728;9.140;2022-10-17T11:36:11;0.20;;;0.20;;
10418;SDS011;5256;48.728;9.140;2022-10-17T11:38:48;0.20;;;0.20;;
10418;SDS011;5256;48.728;9.140;2022-10-17T11:41:32;0.10;;;0.10;;
10418;SDS011;5256;48.728;9.140;2022-10-17T11:44:25;0.20;;;0.20;;
10418;SDS011;5256;48.728;9.140;2022-10-17T11:46:56;0.20;;;0.20;;
10418;SDS011;5256;48.728;9.140;2022-10-17T11:49:48;0.20;;;0.20;;
10418;SDS011;5256;48.728;9.140;2022-10-17T11:55:15;0.23;;;0.23;;
10418;SDS011;5256;48.728;9.140;2022-10-17T12:01:04;0.10;;;0.10;;
10418;SDS011;5256;48.728;9.140;2022-10-17T12:06:54;0.10;;;0.10;;
10418;SDS011;5256;48.728;9.140;2022-10-17T12:12:25;0.20;;;0.20;;
10418;SDS011;5256;48.728;9.140;2022-10-17T12:14:52;0.10;;;0.10;;
10418;SDS011;5256;48.728;9.140;2022-10-17T12:19:49;0.20;;;0.20;;
10418;SDS011;5256;48.728;9.140;2022-10-17T12:24:53;0.10;;;0.10;;
10418;SDS011;5256;48.728;9.140;2022-10-17T12:27:22;0.17;;;0.17;;
10418;SDS011;5256;48.728;9.140;2022-10-17T12:30:22;0.13;;;0.13;;
10418;SDS011;5256;48.728;9.140;2022-10-17T12:35:22;0.20;;;0.20;;
10418;SDS011;5256;48.728;9.140;2022-10-17T12:42:59;0.20;;;0.20;;
10418;SDS011;5256;48.728;9.140;2022-10-17T12:45:43;0.20;;;0.20;;
10418;SDS011;5256;48.728;9.140;2022-10-17T12:48:12;0.17;;;0.17;;
10418;SDS011;5256;48.728;9.140;2022-10-17T12:51:02;0.20;;;0.20;;
10418;SDS011;5256;48.728;9.140;2022-10-17T12:56:28;0.10;;;0.10;;
10418;SDS011;5256;48.728;9.140;2022-10-17T13:01:45;0.20;;;0.20;;
10418;SDS011;5256;48.728;9.140;2022-10-17T13:04:12;0.20;;;0.20;;
10418;SDS011;5256;48.728;9.140;2022-10-17T13:06:48;0.10;;;0.10;;
10418;SDS011;5256;48.728;9.140;2022-10-17T13:09:31;0.10;;;0.10;;
10418;SDS011;5256;48.728;9.140;2022-10-17T13:12:00;0.10;;;0.10;;
10418;SDS011;5256;48.728;9.140;2022-10-17T13:14:28;0.10;;;0.10;;
10418;SDS011;5256;48.728;9.140;2022-10-17T13:16:59;0.10;;;0.10;;
10418;SDS011;5256;48.728;9.140;2022-10-17T13:19:28;0.20;;;0.20;;
10418;SDS011;5256;48.728;9.140;2022-10-17T13:21:56;0.20;;;0.20;;
10418;SDS011;5256;48.728;9.140;2022-10-17T13:24:35;0.20;;;0.20;;
10418;SDS011;5256;48.728;9.140;2022-10-17T13:27:02;0.10;;;0.10;;
10418;SDS011;5256;48.728;9.140;2022-10-17T13:29:29;0.13;;;0.13;;
10418;SDS011;5256;48.728;9.140;2022-10-17T13:32:00;0.10;;;0.10;;
10418;SDS011;5256;48.728;9.140;2022-10-17T13:34:28;0.20;;;0.20;;
10418;SDS011;5256;48.728;9.140;2022-10-17T13:36:58;0.20;;;0.20;;
10418;SDS011;5256;48.728;9.140;2022-10-17T13:39:27;0.20;;;0.20;;
10418;SDS011;5256;48.728;9.140;2022-10-17T13:41:54;0.10;;;0.10;;
10418;SDS011;5256;48.728;9.140;2022-10-17T13:44:25;0.10;;;0.10;;
10418;SDS011;5256;48.728;9.140;2022-10-17T13:46:56;0.10;;;0.10;;
10418;SDS011;5256;48.728;9.140;2022-10-17T13:51:51;0.10;;;0.10;;
10418;SDS011;5256;48.728;9.140;2022-10-17T13:54:18;0.10;;;0.10;;
10418;SDS011;5256;48.728;9.140;2022-10-17T13:57:17;0.10;;;0.10;;
10418;SDS011;5256;48.728;9.140;2022-10-17T13:59:45;0.13;;;0.13;;
10418;SDS011;5256;48.728;9.140;2022-10-17T14:02:14;0.20;;;0.20;;
10418;SDS011;5256;48.728;9.140;2022-10-17T14:04:43;0.10;;;0.10;;
10418;SDS011;5256;48.728;9.140;2022-10-17T14:07:29;0.10;;;0.10;;
10418;SDS011;5256;48.728;9.140;2022-10-17T14:10:01;0.10;;;0.10;;
10418;SDS011;5256;48.728;9.140;2022-10-17T14:12:30;0.20;;;0.20;;
10418;SDS011;5256;48.728;9.140;2022-10-17T14:14:57;0.20;;;0.20;;
10418;SDS011;5256;48.728;9.140;2022-10-17T14:17:23;0.17;;;0.17;;
10418;SDS011;5256;48.728;9.140;2022-10-17T14:19:55;0.10;;;0.10;;
10418;SDS011;5256;48.728;9.140;2022-10-17T14:22:24;0.20;;;0.20;;
10418;SDS011;5256;48.728;9.140;2022-10-17T14:24:52;0.10;;;0.10;;
10418;SDS011;5256;48.728;9.140;2022-10-17T14:27:37;0.20;;;0.20;;
10418;SDS011;5256;48.728;9.140;2022-10-17T14:32:50;0.10;;;0.10;;
10418;SDS011;5256;48.728;9.140;2022-10-17T14:35:20;0.13;;;0.13;;
10418;SDS011;5256;48.728;9.140;2022-10-17T14:37:47;0.20;;;0.20;;
10418;SDS011;5256;48.728;9.140;2022-10-17T14:42:40;0.20;;;0.20;;
10418;SDS011;5256;48.728;9.140;2022-10-17T14:45:07;0.10;;;0.10;;
10418;SDS011;5256;48.728;9.140;2022-10-17T14:47:37;0.20;;;0.20;;
10418;SDS011;5256;48.728;9.140;2022-10-17T14:50:19;0.10;;;0.10;;
10418;SDS011;5256;48.728;9.140;2022-10-17T14:52:59;0.20;;;0.20;;
10418;SDS011;5256;48.728;9.140;2022-10-17T14:55:58;0.10;;;0.10;;
10418;SDS011;5256;48.728;9.140;2022-10-17T14:58:26;0.20;;;0.20;;
10418;SDS011;5256;48.728;9.140;2022-10-17T15:00:56;0.10;;;0.10;;
10418;SDS011;5256;48.728;9.140;2022-10-17T15:03:23;0.20;;;0.20;;
10418;SDS011;5256;48.728;9.140;2022-10-17T15:05:49;0.20;;;0.20;;
10418;SDS011;5256;48.728;9.140;2022-10-17T15:08:16;0.10;;;0.10;;
10418;SDS011;5256;48.728;9.140;2022-10-17T15:10:44;0.20;;;0.20;;
10418;SDS011;5256;48.728;9.140;2022-10-17T15:13:11;0.17;;;0.17;;
10418;SDS011;5256;48.728;9.140;2022-10-17T15:15:38;0.20;;;0.20;;
10418;SDS011;5256;48.728;9.140;2022-10-17T15:18:04;0.20;;;0.20;;
10418;SDS011;5256;48.728;9.140;2022-10-17T15:20:31;0.20;;;0.20;;
10418;SDS011;5256;48.728;9.140;2022-10-17T15:22:58;0.10;;;0.10;;
10418;SDS011;5256;48.728;9.140;2022-10-17T15:25:25;0.10;;;0.10;;
10418;SDS011;5256;48.728;9.140;2022-10-17T15:27:51;0.20;;;0.20;;
10418;SDS011;5256;48.728;9.140;2022-10-17T15:30:22;0.13;;;0.13;;
10418;SDS011;5256;48.728;9.140;2022-10-17T15:32:49;0.20;;;0.20;;
10418;SDS011;5256;48.728;9.140;2022-10-17T15:35:15;0.20;;;0.20;;
10418;SDS011;5256;48.728;9.140;2022-10-17T15:37:41;0.17;;;0.17;;
10418;SDS011;5256;48.728;9.140;2022-10-17T15:40:29;0.13;;;0.13;;
10418;SDS011;5256;48.728;9.140;2022-10-17T15:42:54;0.20;;;0.20;;
10418;SDS011;5256;48.728;9.140;2022-10-17T15:45:22;0.20;;;0.20;;
10418;SDS011;5256;48.728;9.140;2022-10-17T15:47:53;0.23;;;0.23;;
10418;SDS011;5256;48.728;9.140;2022-10-17T15:50:26;0.20;;;0.20;;
10418;SDS011;5256;48.728;9.140;2022-10-17T15:52:54;0.20;;;0.20;;
10418;SDS011;5256;48.728;9.140;2022-10-17T15:55:20;0.20;;;0.20;;
10418;SDS011;5256;48.728;9.140;2022-10-17T15:57:46;0.20;;;0.20;;
10418;SDS011;5256;48.728;9.140;2022-10-17T16:00:19;0.20;;;0.20;;
10418;SDS011;5256;48.728;9.140;2022-10-17T16:02:48;0.10;;;0.10;;
10418;SDS011;5256;48.728;9.140;2022-10-17T16:05:19;0.20;;;0.20;;
10418;SDS011;5256;48.728;9.140;2022-10-17T16:07:50;0.10;;;0.10;;
10418;SDS011;5256;48.728;9.140;2022-10-17T16:10:17;0.30;;;0.30;;
10418;SDS011;5256;48.728;9.140;2022-10-17T16:12:43;0.20;;;0.20;;
10418;SDS011;5256;48.728;9.140;2022-10-17T16:15:20;0.30;;;0.30;;
10418;SDS011;5256;48.728;9.140;2022-10-17T16:17:48;0.20;;;0.20;;
10418;SDS011;5256;48.728;9.140;2022-10-17T16:20:15;0.10;;;0.10;;
10418;SDS011;5256;48.728;9.140;2022-10-17T16:22:41;0.20;;;0.20;;
10418;SDS011;5256;48.728;9.140;2022-10-17T16:25:22;0.13;;;0.13;;
10418;SDS011;5256;48.728;9.140;2022-10-17T16:27:50;0.20;;;0.20;;
10418;SDS011;5256;48.728;9.140;2022-10-17T16:30:18;0.30;;;0.30;;
10418;SDS011;5256;48.728;9.140;2022-10-17T16:32:44;0.10;;;0.10;;
10418;SDS011;5256;48.728;9.140;2022-10-17T16:35:10;0.20;;;0.20;;
10418;SDS011;5256;48.728;9.140;2022-10-17T16:37:43;0.20;;;0.20;;
10418;SDS011;5256;48.728;9.140;2022-10-17T16:40:09;0.20;;;0.20;;
10418;SDS011;5256;48.728;9.140;2022-10-17T16:42:35;0.20;;;0.20;;
10418;SDS011;5256;48.728;9.140;2022-10-17T16:45:01;0.20;;;0.20;;
10418;SDS011;5256;48.728;9.140;2022-10-17T16:47:26;0.10;;;0.10;;
10418;SDS011;5256;48.728;9.140;2022-10-17T16:49:52;0.20;;;0.20;;
10418;SDS011;5256;48.728;9.140;2022-10-17T16:52:18;0.20;;;0.20;;
10418;SDS011;5256;48.728;9.140;2022-10-17T16:54:43;0.20;;;0.20;;
10418;SDS011;5256;48.728;9.140;2022-10-17T16:57:09;0.20;;;0.20;;
10418;SDS011;5256;48.728;9.140;2022-10-17T16:59:34;0.20;;;0.20;;
10418;SDS011;5256;48.728;9.140;2022-10-17T17:02:00;0.20;;;0.20;;
10418;SDS011;5256;48.728;9.140;2022-10-17T17:04:25;0.20;;;0.20;;